Time;durP1;ratioP1;P1;durP2;ratioP2;P2;SDS_P1;SDS_P2;PMS_P1;PMS_P2;Temp;Humidity;BMP_temperature;BMP_pressure;BME280_temperature;BME280_humidity;BME280_pressure;Samples;Min_cycle;Max_cycle;Signal;HPM_P1;HPM_P2
2021/12/03 00:02:15;;;;;;;;;;;16.00;43.50;14.80;100520.00;;;;5062985;28;19924;-61
2021/12/03 00:05:02;;;;;;;;;;;16.00;43.50;14.80;100518.00;;;;5065949;28;19936;-62
2021/12/03 00:07:48;;;;;;;;;;;16.00;43.50;14.80;100515.00;;;;5067014;28;19916;-62
2021/12/03 00:10:36;;;;;;;;;;;16.00;43.50;14.80;100520.00;;;;5076719;28;19920;-61
2021/12/03 00:13:23;;;;;;;;;;;16.00;43.50;14.80;100518.00;;;;5076533;28;19951;-63
2021/12/03 00:16:10;;;;;;;;;;;16.00;43.50;14.80;100524.00;;;;5077923;28;19916;-62
2021/12/03 00:18:56;;;;;;;;;;;16.00;43.50;14.80;100531.00;;;;5053689;28;19921;-62
2021/12/03 00:21:42;;;;;;;;;;;16.00;43.50;14.80;100531.00;;;;5055128;28;20198;-62
2021/12/03 00:24:28;;;;;;;;;;;16.00;44.20;14.80;100532.00;;;;5067438;28;20374;-62
2021/12/03 00:27:15;;;;;;;;;;;16.00;43.50;14.80;100531.00;;;;5075280;28;20197;-61
2021/12/03 00:30:01;;;;;;;;;;;16.00;43.40;14.80;100530.00;;;;5059072;28;19959;-62
2021/12/03 00:32:47;;;;;;;;;;;16.00;43.40;14.80;100529.00;;;;5044361;28;19924;-62
2021/12/03 00:35:33;;;;;;;;;;;16.00;43.40;14.80;100533.00;;;;5061333;28;19973;-62
2021/12/03 00:38:20;;;;;;;;;;;16.00;43.40;14.80;100542.00;;;;5055978;28;19924;-62
2021/12/03 00:41:08;;;;;;;;;;;16.00;43.40;14.80;100537.00;;;;5048032;28;19975;-62
2021/12/03 00:43:54;;;;;;;;;;;16.00;43.40;14.80;100547.00;;;;5074215;28;20410;-62
2021/12/03 00:46:40;;;;;;;;;;;16.00;43.40;14.80;100543.00;;;;5069201;28;19923;-62
2021/12/03 00:49:26;;;;;;;;;;;16.00;43.40;14.80;100535.00;;;;5078380;28;19924;-62
2021/12/03 00:52:12;;;;;;;;;;;16.00;43.40;14.70;100526.00;;;;5047068;28;20285;-62
2021/12/03 00:54:58;;;;;;;;;;;16.00;43.40;14.80;100535.00;;;;5081401;28;20373;-61
2021/12/03 00:57:44;;;;;;;;;;;15.90;43.30;14.80;100533.00;;;;5067427;28;20311;-62
2021/12/03 01:00:31;;;;;;;;;;;16.00;43.30;14.70;100542.00;;;;5072337;28;19920;-62
2021/12/03 01:03:17;;;;;;;;;;;16.00;43.30;14.70;100544.00;;;;5057499;28;20331;-62
2021/12/03 01:06:04;;;;;;;;;;;15.90;43.30;14.70;100538.00;;;;5064956;28;19999;-61
2021/12/03 01:08:50;;;;;;;;;;;15.90;43.30;14.70;100548.00;;;;5055290;28;19917;-62
2021/12/03 01:11:36;;;;;;;;;;;15.90;43.30;14.70;100553.00;;;;5054832;28;19917;-62
2021/12/03 01:14:22;;;;;;;;;;;15.90;43.30;14.70;100545.00;;;;5068333;28;19920;-62
2021/12/03 01:17:08;;;;;;;;;;;15.90;43.30;14.70;100543.00;;;;5054186;28;19916;-62
2021/12/03 01:19:54;;;;;;;;;;;15.90;43.40;14.70;100550.00;;;;5059501;28;19917;-61
2021/12/03 01:22:41;;;;;;;;;;;15.90;43.30;14.70;100556.00;;;;5073539;28;20488;-62
2021/12/03 01:25:27;;;;;;;;;;;15.90;43.30;14.70;100552.00;;;;5070698;28;20258;-62
2021/12/03 01:28:15;;;;;;;;;;;15.90;43.30;14.70;100555.00;;;;5046444;28;19916;-62
2021/12/03 01:31:01;;;;;;;;;;;15.90;43.30;14.70;100561.00;;;;5061715;28;22237;-62
2021/12/03 01:33:47;;;;;;;;;;;15.90;43.30;14.70;100557.00;;;;5049540;28;20007;-62
2021/12/03 01:36:34;;;;;;;;;;;15.90;43.30;14.70;100564.00;;;;5066907;28;19916;-62
2021/12/03 01:39:20;;;;;;;;;;;15.90;43.30;14.70;100565.00;;;;5078543;28;19967;-61
2021/12/03 01:42:06;;;;;;;;;;;15.90;43.30;14.70;100565.00;;;;5053565;28;20348;-62
2021/12/03 01:44:52;;;;;;;;;;;15.90;43.30;14.70;100562.00;;;;5065110;28;19916;-62
2021/12/03 01:47:40;;;;;;;;;;;15.90;43.30;14.70;100552.00;;;;5069984;28;19962;-62
2021/12/03 01:50:29;;;;;;;;;;;15.90;43.30;14.70;100557.00;;;;5079660;28;20094;-62
2021/12/03 01:53:17;;;;;;;;;;;15.90;43.30;14.70;100553.00;;;;5047622;28;19935;-62
2021/12/03 01:56:09;;;;;;;;;;;15.90;43.30;14.70;100560.00;;;;5074139;28;19923;-62
2021/12/03 01:58:55;;;;;;;;;;;15.80;43.20;14.60;100565.00;;;;5048501;28;19931;-62
2021/12/03 02:01:41;;;;;;;;;;;15.90;43.30;14.60;100561.00;;;;5067249;28;19921;-62
2021/12/03 02:04:27;;;;;;;;;;;15.80;43.20;14.60;100556.00;;;;5072713;28;19917;-62
2021/12/03 02:07:14;;;;;;;;;;;15.80;43.20;14.60;100560.00;;;;5066895;28;19917;-62
2021/12/03 02:10:00;;;;;;;;;;;15.80;43.20;14.60;100559.00;;;;5089277;28;20360;-62
2021/12/03 02:12:46;;;;;;;;;;;15.80;43.20;14.60;100550.00;;;;5074654;28;19917;-62
2021/12/03 02:15:32;;;;;;;;;;;15.80;43.20;14.60;100546.00;;;;5088242;28;20004;-62
2021/12/03 02:18:18;;;;;;;;;;;15.80;43.20;14.60;100554.00;;;;5065536;28;20092;-62
2021/12/03 02:21:05;;;;;;;;;;;15.80;43.20;14.60;100553.00;;;;5073249;28;19970;-61
2021/12/03 02:23:52;;;;;;;;;;;15.80;43.20;14.60;100555.00;;;;5066133;28;19930;-62
2021/12/03 02:26:39;;;;;;;;;;;15.80;43.20;14.60;100558.00;;;;5050494;28;19916;-62
2021/12/03 02:29:26;;;;;;;;;;;15.80;43.20;14.60;100548.00;;;;5067825;28;19975;-62
2021/12/03 02:32:12;;;;;;;;;;;15.70;43.20;14.60;100552.00;;;;5076726;28;19916;-62
2021/12/03 02:34:58;;;;;;;;;;;15.70;43.20;14.50;100532.00;;;;5070328;28;19917;-62
2021/12/03 02:37:44;;;;;;;;;;;15.70;43.10;14.50;100542.00;;;;5060336;28;19982;-62
2021/12/03 02:40:30;;;;;;;;;;;15.70;43.10;14.50;100545.00;;;;5067400;28;20385;-62
2021/12/03 02:43:17;;;;;;;;;;;15.70;43.10;14.50;100542.00;;;;5060898;28;19920;-62
2021/12/03 02:46:03;;;;;;;;;;;15.70;43.10;14.50;100551.00;;;;5041298;28;19923;-61
2021/12/03 02:48:49;;;;;;;;;;;15.70;43.10;14.50;100566.00;;;;5078730;28;19923;-62
2021/12/03 02:51:35;;;;;;;;;;;15.70;43.10;14.50;100562.00;;;;5083830;28;20388;-62
2021/12/03 02:54:21;;;;;;;;;;;15.70;43.10;14.50;100556.00;;;;5058622;28;19970;-61
2021/12/03 02:57:07;;;;;;;;;;;15.70;43.80;14.50;100542.00;;;;5074499;28;20216;-62
2021/12/03 02:59:54;;;;;;;;;;;15.70;43.10;14.50;100547.00;;;;5069699;28;19939;-62
2021/12/03 03:02:40;;;;;;;;;;;15.70;43.10;14.50;100547.00;;;;5073182;28;20358;-61
2021/12/03 03:05:27;;;;;;;;;;;15.70;43.10;14.50;100555.00;;;;5072454;28;19916;-62
2021/12/03 03:08:13;;;;;;;;;;;15.60;43.00;14.50;100555.00;;;;5069982;28;19962;-62
2021/12/03 03:11:02;;;;;;;;;;;15.60;43.00;14.50;100559.00;;;;5078638;28;20075;-62
2021/12/03 03:13:48;;;;;;;;;;;15.60;43.00;14.50;100558.00;;;;5073190;28;19920;-62
2021/12/03 03:16:35;;;;;;;;;;;15.60;43.00;14.50;100562.00;;;;5078107;28;20288;-62
2021/12/03 03:19:22;;;;;;;;;;;15.60;43.00;14.40;100554.00;;;;5079816;28;19924;-62
2021/12/03 03:22:08;;;;;;;;;;;15.60;43.00;14.40;100558.00;;;;5054006;28;19935;-62
2021/12/03 03:24:59;;;;;;;;;;;15.60;43.00;14.40;100561.00;;;;5072745;28;20309;-62
2021/12/03 03:27:45;;;;;;;;;;;15.60;43.00;14.40;100563.00;;;;5073533;28;20320;-62
2021/12/03 03:30:32;;;;;;;;;;;15.60;43.00;14.40;100555.00;;;;5054923;28;20882;-61
2021/12/03 03:33:18;;;;;;;;;;;15.60;43.00;14.40;100559.00;;;;5064164;28;19932;-63
2021/12/03 03:36:04;;;;;;;;;;;15.60;43.00;14.40;100554.00;;;;5058468;28;19924;-62
2021/12/03 03:38:50;;;;;;;;;;;15.60;43.00;14.40;100550.00;;;;5061364;28;19930;-62
2021/12/03 03:41:37;;;;;;;;;;;15.60;43.00;14.40;100554.00;;;;5063763;28;19923;-62
2021/12/03 03:44:23;;;;;;;;;;;15.60;43.00;14.40;100558.00;;;;5050600;28;20320;-62
2021/12/03 03:47:09;;;;;;;;;;;15.60;43.00;14.40;100549.00;;;;5069847;28;20384;-62
2021/12/03 03:49:55;;;;;;;;;;;15.60;43.00;14.40;100533.00;;;;5041936;28;19920;-62
2021/12/03 03:52:42;;;;;;;;;;;15.50;42.90;14.30;100526.00;;;;5072055;28;20367;-62
2021/12/03 03:55:28;;;;;;;;;;;15.50;43.00;14.40;100524.00;;;;5073637;28;19967;-62
2021/12/03 03:58:14;;;;;;;;;;;15.50;43.00;14.30;100527.00;;;;5086813;28;19924;-61
2021/12/03 04:01:00;;;;;;;;;;;15.50;43.00;14.30;100531.00;;;;5079860;28;19916;-62
2021/12/03 04:03:46;;;;;;;;;;;15.50;43.00;14.30;100527.00;;;;5064049;28;20018;-62
2021/12/03 04:06:32;;;;;;;;;;;15.50;43.00;14.30;100522.00;;;;5064568;28;20014;-62
2021/12/03 04:09:19;;;;;;;;;;;15.50;43.00;14.30;100514.00;;;;5069662;28;19931;-62
2021/12/03 04:12:05;;;;;;;;;;;15.50;43.00;14.30;100523.00;;;;5057762;28;20431;-62
2021/12/03 04:14:52;;;;;;;;;;;15.50;43.00;14.30;100527.00;;;;5061759;28;20377;-62
2021/12/03 04:17:38;;;;;;;;;;;15.50;43.00;14.30;100524.00;;;;5072607;28;19916;-61
2021/12/03 04:20:24;;;;;;;;;;;15.50;43.00;14.30;100512.00;;;;5069951;28;19917;-62
2021/12/03 04:23:15;;;;;;;;;;;15.50;43.00;14.30;100516.00;;;;5064767;28;20015;-62
2021/12/03 04:26:01;;;;;;;;;;;15.50;43.10;14.30;100515.00;;;;5062849;28;19923;-62
2021/12/03 04:28:47;;;;;;;;;;;15.50;43.10;14.30;100514.00;;;;5044389;28;20420;-61
2021/12/03 04:31:33;;;;;;;;;;;15.50;43.00;14.30;100513.00;;;;5078559;28;19923;-61
2021/12/03 04:34:19;;;;;;;;;;;15.50;43.80;14.30;100514.00;;;;5070524;28;19921;-62
2021/12/03 04:37:05;;;;;;;;;;;15.50;43.10;14.30;100512.00;;;;5063724;28;19921;-62
2021/12/03 04:39:51;;;;;;;;;;;15.50;43.00;14.30;100506.00;;;;5055891;28;20752;-62
2021/12/03 04:42:38;;;;;;;;;;;15.50;43.10;14.30;100501.00;;;;5064466;28;19951;-61
2021/12/03 04:45:24;;;;;;;;;;;15.50;43.00;14.30;100503.00;;;;5072853;28;19920;-62
2021/12/03 04:48:10;;;;;;;;;;;15.50;43.10;14.30;100497.00;;;;5066180;28;19917;-61
2021/12/03 04:50:57;;;;;;;;;;;15.50;43.10;14.30;100502.00;;;;5067989;28;19971;-61
2021/12/03 04:53:43;;;;;;;;;;;15.50;43.00;14.30;100502.00;;;;5069759;28;19924;-61
2021/12/03 04:56:29;;;;;;;;;;;15.40;43.00;14.30;100506.00;;;;5085050;28;19917;-61
2021/12/03 04:59:15;;;;;;;;;;;15.40;43.00;14.30;100512.00;;;;5069318;28;19959;-62
2021/12/03 05:02:01;;;;;;;;;;;15.40;43.00;14.30;100498.00;;;;5057527;28;20269;-62
2021/12/03 05:04:49;;;;;;;;;;;15.40;43.00;14.30;100506.00;;;;5076498;28;20355;-61
2021/12/03 05:10:25;;;;;;;;;;;15.40;43.00;14.20;100504.00;;;;5081189;28;19971;-62
2021/12/03 05:13:13;;;;;;;;;;;15.40;43.00;14.20;100511.00;;;;5045537;28;19952;-61
2021/12/03 05:15:59;;;;;;;;;;;15.40;43.00;14.30;100513.00;;;;5066819;28;19917;-62
2021/12/03 05:18:48;;;;;;;;;;;15.40;43.00;14.20;100511.00;;;;5059969;28;19917;-62
2021/12/03 05:21:34;;;;;;;;;;;15.40;43.10;14.20;100514.00;;;;5061551;28;19963;-61
2021/12/03 05:24:20;;;;;;;;;;;15.40;43.10;14.20;100515.00;;;;5077139;28;19928;-61
2021/12/03 05:27:06;;;;;;;;;;;15.40;43.10;14.20;100510.00;;;;5060589;28;20382;-62
2021/12/03 05:29:52;;;;;;;;;;;15.30;43.00;14.20;100513.00;;;;5058041;28;19917;-62
2021/12/03 05:32:38;;;;;;;;;;;15.40;43.10;14.20;100521.00;;;;5064573;28;19999;-62
2021/12/03 05:35:25;;;;;;;;;;;15.40;43.10;14.20;100520.00;;;;5062514;28;19978;-61
2021/12/03 05:38:11;;;;;;;;;;;15.40;43.10;14.20;100523.00;;;;5080538;28;19928;-62
2021/12/03 05:40:57;;;;;;;;;;;15.30;43.00;14.20;100510.00;;;;5078650;28;19919;-62
2021/12/03 05:43:43;;;;;;;;;;;15.40;43.10;14.20;100511.00;;;;5072369;28;19920;-62
2021/12/03 05:46:30;;;;;;;;;;;15.30;43.00;14.20;100510.00;;;;5075746;28;20346;-62
2021/12/03 05:49:16;;;;;;;;;;;15.30;43.10;14.20;100517.00;;;;5046402;28;19924;-61
2021/12/03 05:52:02;;;;;;;;;;;15.30;43.00;14.20;100512.00;;;;5073275;28;20265;-61
2021/12/03 05:54:48;;;;;;;;;;;15.40;43.10;14.20;100515.00;;;;5075215;28;19916;-61
2021/12/03 05:57:34;;;;;;;;;;;15.30;43.00;14.20;100511.00;;;;5069672;28;19939;-61
2021/12/03 06:00:35;;;;;;;;;;;15.40;43.10;14.20;100521.00;;;;5073845;28;19916;-61
2021/12/03 06:03:21;;;;;;;;;;;15.30;43.10;14.20;100521.00;;;;5068244;28;19920;-61
2021/12/03 06:06:07;;;;;;;;;;;15.30;43.00;14.20;100514.00;;;;5066160;28;20007;-61
2021/12/03 06:08:53;;;;;;;;;;;15.30;43.00;14.20;100508.00;;;;5068448;28;19946;-61
2021/12/03 06:11:39;;;;;;;;;;;15.30;43.10;14.20;100521.00;;;;5048819;28;20038;-62
2021/12/03 06:14:27;;;;;;;;;;;15.30;43.10;14.10;100515.00;;;;5053454;28;19924;-62
2021/12/03 06:17:15;;;;;;;;;;;15.30;43.10;14.10;100515.00;;;;5064388;28;19920;-62
2021/12/03 06:20:02;;;;;;;;;;;15.30;43.10;14.10;100523.00;;;;5083352;28;19920;-62
2021/12/03 06:22:48;;;;;;;;;;;15.30;43.10;14.10;100512.00;;;;5044050;28;20007;-62
2021/12/03 06:25:34;;;;;;;;;;;15.30;43.10;14.10;100521.00;;;;5052024;28;20459;-62
2021/12/03 06:28:20;;;;;;;;;;;15.30;43.10;14.10;100520.00;;;;5069346;28;20334;-62
2021/12/03 06:31:06;;;;;;;;;;;15.30;43.10;14.10;100512.00;;;;5069422;28;20366;-61
2021/12/03 06:33:53;;;;;;;;;;;15.30;43.20;14.10;100515.00;;;;5070075;28;20235;-62
2021/12/03 06:36:39;;;;;;;;;;;15.30;43.20;14.10;100508.00;;;;5068896;28;20348;-61
2021/12/03 06:39:25;;;;;;;;;;;15.30;43.20;14.10;100512.00;;;;5070917;28;19928;-63
2021/12/03 06:42:11;;;;;;;;;;;15.20;43.10;14.10;100501.00;;;;5070861;28;19931;-61
2021/12/03 06:44:57;;;;;;;;;;;15.30;43.20;14.10;100497.00;;;;5066288;28;19962;-61
2021/12/03 06:47:43;;;;;;;;;;;15.30;43.20;14.10;100497.00;;;;5071559;28;19920;-62
2021/12/03 06:50:31;;;;;;;;;;;15.30;43.20;14.10;100504.00;;;;5068831;28;19917;-62
2021/12/03 06:53:20;;;;;;;;;;;15.30;43.10;14.10;100500.00;;;;5069581;28;19920;-61
2021/12/03 06:56:09;;;;;;;;;;;15.20;43.20;14.10;100503.00;;;;5073398;28;19917;-62
2021/12/03 06:58:55;;;;;;;;;;;15.30;43.20;14.10;100499.00;;;;5060567;28;19966;-61
2021/12/03 07:01:42;;;;;;;;;;;15.30;43.20;14.10;100521.00;;;;5084919;28;19917;-62
2021/12/03 07:04:28;;;;;;;;;;;15.30;43.20;14.10;100515.00;;;;5059618;28;19917;-62
2021/12/03 07:07:14;;;;;;;;;;;15.30;43.20;14.10;100509.00;;;;5047843;28;19920;-61
2021/12/03 07:10:01;;;;;;;;;;;15.30;43.20;14.10;100529.00;;;;5059519;28;19917;-62
2021/12/03 07:12:47;;;;;;;;;;;15.30;43.20;14.10;100530.00;;;;5046606;28;20277;-61
2021/12/03 07:15:33;;;;;;;;;;;15.30;43.20;14.10;100513.00;;;;5050028;28;19916;-61
2021/12/03 07:18:19;;;;;;;;;;;15.30;43.20;14.10;100516.00;;;;5057616;28;20003;-62
2021/12/03 07:21:05;;;;;;;;;;;15.30;43.20;14.10;100523.00;;;;5068287;28;19959;-62
2021/12/03 07:23:52;;;;;;;;;;;15.30;43.20;14.10;100517.00;;;;5080030;28;20333;-61
2021/12/03 07:26:39;;;;;;;;;;;15.30;43.20;14.10;100523.00;;;;5079522;28;19950;-62
2021/12/03 07:29:25;;;;;;;;;;;15.30;43.10;14.10;100499.00;;;;5059501;28;20173;-62
2021/12/03 07:32:11;;;;;;;;;;;15.30;43.20;14.10;100506.00;;;;5074749;28;19916;-62
2021/12/03 07:34:57;;;;;;;;;;;15.30;43.10;14.10;100505.00;;;;5048512;28;19999;-62
2021/12/03 07:37:43;;;;;;;;;;;15.20;43.10;14.10;100502.00;;;;5065419;28;19927;-62
2021/12/03 07:40:30;;;;;;;;;;;15.30;43.10;14.10;100500.00;;;;5063200;28;20377;-61
2021/12/03 07:43:17;;;;;;;;;;;15.20;43.10;14.10;100498.00;;;;5067032;28;19929;-62
2021/12/03 07:46:03;;;;;;;;;;;15.30;43.20;14.10;100491.00;;;;5085050;28;19939;-61
2021/12/03 07:48:50;;;;;;;;;;;15.20;43.20;14.10;100489.00;;;;5071975;28;19928;-61
2021/12/03 07:51:36;;;;;;;;;;;15.20;43.10;14.10;100487.00;;;;5066092;28;19970;-61
2021/12/03 07:54:22;;;;;;;;;;;15.20;43.20;14.10;100485.00;;;;5061287;28;20112;-62
2021/12/03 07:57:08;;;;;;;;;;;15.20;43.20;14.10;100489.00;;;;5065148;28;19962;-62
2021/12/03 07:59:55;;;;;;;;;;;15.20;43.20;14.10;100492.00;;;;5052276;28;20020;-62
2021/12/03 08:02:41;;;;;;;;;;;15.20;43.20;14.10;100490.00;;;;5077567;28;19927;-62
2021/12/03 08:05:27;;;;;;;;;;;15.20;43.20;14.10;100487.00;;;;5067927;28;20301;-61
2021/12/03 08:08:13;;;;;;;;;;;15.20;43.30;14.10;100487.00;;;;5061217;28;19967;-62
2021/12/03 08:10:59;;;;;;;;;;;15.20;43.20;14.10;100485.00;;;;5053427;28;20265;-62
2021/12/03 08:13:45;;;;;;;;;;;15.20;43.30;14.10;100475.00;;;;5067839;28;19920;-62
2021/12/03 08:16:32;;;;;;;;;;;15.20;43.20;14.10;100488.00;;;;5080702;28;19917;-61
2021/12/03 08:19:18;;;;;;;;;;;15.20;43.20;14.10;100488.00;;;;5063511;28;20374;-61
2021/12/03 08:22:04;;;;;;;;;;;15.20;43.20;14.10;100489.00;;;;5068978;28;19995;-61
2021/12/03 08:24:50;;;;;;;;;;;15.20;43.20;14.10;100483.00;;;;5060628;28;20311;-62
2021/12/03 08:27:36;;;;;;;;;;;15.20;43.20;14.10;100489.00;;;;5047324;28;19935;-62
2021/12/03 08:30:25;;;;;;;;;;;15.20;43.20;14.10;100480.00;;;;5068392;28;19923;-62
2021/12/03 08:33:12;;;;;;;;;;;15.20;43.20;14.10;100487.00;;;;5066777;28;19916;-61
2021/12/03 08:35:58;;;;;;;;;;;15.20;43.30;14.10;100488.00;;;;5070963;28;19922;-62
2021/12/03 08:38:44;;;;;;;;;;;15.30;43.30;14.10;100487.00;;;;5046850;28;20299;-61
2021/12/03 08:41:30;;;;;;;;;;;15.20;43.20;14.10;100485.00;;;;5064778;28;20002;-62
2021/12/03 08:44:16;;;;;;;;;;;15.30;43.30;14.10;100488.00;;;;5071402;28;20003;-62
2021/12/03 08:47:04;;;;;;;;;;;15.20;43.20;14.10;100465.00;;;;5073068;28;19960;-62
2021/12/03 08:49:52;;;;;;;;;;;15.30;43.30;14.10;100471.00;;;;5050010;28;19916;-61
2021/12/03 08:53:04;;;;;;;;;;;15.20;43.20;14.10;100462.00;;;;5049744;28;19921;-62
2021/12/03 08:55:50;;;;;;;;;;;15.20;43.20;14.10;100461.00;;;;5056803;28;20019;-62
2021/12/03 08:58:36;;;;;;;;;;;15.20;43.20;14.10;100463.00;;;;5068866;28;19920;-61
2021/12/03 09:01:22;;;;;;;;;;;15.20;43.20;14.00;100475.00;;;;5056659;28;20007;-61
2021/12/03 09:04:08;;;;;;;;;;;15.20;43.30;14.00;100464.00;;;;5056839;28;19928;-61
2021/12/03 09:06:56;;;;;;;;;;;15.20;43.30;14.00;100460.00;;;;5066583;28;19942;-61
2021/12/03 09:09:43;;;;;;;;;;;15.20;43.30;14.00;100454.00;;;;5066017;28;20011;-61
2021/12/03 09:12:29;;;;;;;;;;;15.20;43.30;14.00;100460.00;;;;5057635;28;19917;-62
2021/12/03 09:15:17;;;;;;;;;;;15.20;43.30;14.00;100448.00;;;;5066339;28;19927;-62
2021/12/03 09:21:24;;;;;;;;;;;15.20;43.30;14.00;100437.00;;;;5050689;28;19954;-62
2021/12/03 09:24:16;;;;;;;;;;;15.20;43.40;14.00;100440.00;;;;5058478;28;19920;-62
2021/12/03 09:27:03;;;;;;;;;;;15.20;43.30;14.00;100436.00;;;;5057031;28;19916;-62
2021/12/03 09:29:51;;;;;;;;;;;15.20;43.40;14.00;100426.00;;;;5060149;28;19916;-61
2021/12/03 09:32:37;;;;;;;;;;;15.20;43.40;14.00;100425.00;;;;5081501;28;19928;-62
2021/12/03 09:35:24;;;;;;;;;;;15.20;43.40;14.00;100412.00;;;;5048762;28;20267;-62
2021/12/03 09:38:10;;;;;;;;;;;15.20;43.40;14.00;100409.00;;;;5063377;28;19928;-62
2021/12/03 09:41:05;;;;;;;;;;;15.20;43.40;14.00;100412.00;;;;5047138;28;19939;-61
2021/12/03 09:43:52;;;;;;;;;;;15.20;43.50;14.00;100420.00;;;;5068340;28;19928;-61
2021/12/03 09:46:38;;;;;;;;;;;15.20;43.40;14.00;100424.00;;;;5065995;28;20281;-62
2021/12/03 09:52:36;;;;;;;;;;;15.20;43.40;14.00;100427.00;;;;5054315;28;19916;-62
2021/12/03 09:55:22;;;;;;;;;;;15.20;43.40;14.00;100437.00;;;;5078854;28;19916;-61
2021/12/03 10:01:05;;;;;;;;;;;15.20;43.40;14.00;100424.00;;;;5072274;28;20386;-62
2021/12/03 10:13:07;;;;;;;;;;;15.20;43.40;14.00;100424.00;;;;5069112;28;20008;-61
2021/12/03 10:18:47;;;;;;;;;;;15.10;43.30;14.00;100423.00;;;;5068148;28;19916;-61
2021/12/03 10:30:49;;;;;;;;;;;15.10;43.30;14.00;100410.00;;;;5083545;28;19916;-62
2021/12/03 10:39:55;;;;;;;;;;;15.10;43.30;14.00;100378.00;;;;5096617;27;19965;-61
2021/12/03 10:43:07;;;;;;;;;;;15.10;43.20;14.00;100382.00;;;;5084156;28;20265;-61
2021/12/03 10:52:26;;;;;;;;;;;15.10;43.20;13.90;100346.00;;;;5027132;28;20385;-61
2021/12/03 11:29:18;;;;;;;;;;;15.00;43.30;13.90;100291.00;;;;5064016;28;19920;-62
2021/12/03 12:00:07;;;;;;;;;;;14.90;43.30;13.80;100246.00;;;;5069919;28;20450;-61
2021/12/03 12:13:50;;;;;;;;;;;14.90;43.30;13.80;100226.00;;;;5085548;28;20146;-61
2021/12/03 12:40:20;;;;;;;;;;;14.90;43.30;13.80;100202.00;;;;5080845;28;20003;-61
2021/12/03 13:02:40;;;;;;;;;;;14.90;43.50;13.80;100157.00;;;;5082452;28;19926;-61
2021/12/03 14:05:06;;;;;;;;;;;15.00;43.70;13.90;100067.00;;;;5090510;28;20273;-62
2021/12/03 14:08:38;;;;;;;;;;;15.00;43.70;13.90;100060.00;;;;5070951;28;20345;-62
2021/12/03 14:15:35;;;;;;;;;;;15.00;43.60;13.90;100066.00;;;;5103130;27;20014;-62
2021/12/03 14:36:17;;;;;;;;;;;15.00;43.50;13.90;100036.00;;;;5080263;28;19915;-62
2021/12/03 14:47:56;;;;;;;;;;;15.00;43.50;13.80;100022.00;;;;5085818;28;20525;-61
2021/12/03 14:57:34;;;;;;;;;;;15.00;43.50;13.90;100011.00;;;;5074095;28;19923;-64
2021/12/03 15:09:27;;;;;;;;;;;15.00;43.50;13.80;100007.00;;;;5090152;27;19915;-63
2021/12/03 15:27:46;;;;;;;;;;;14.90;43.40;13.80;100025.00;;;;5077933;28;19916;-62
2021/12/03 15:39:38;;;;;;;;;;;14.90;43.50;13.70;100030.00;;;;5090369;28;19963;-62
2021/12/03 16:04:14;;;;;;;;;;;14.80;43.80;13.70;100009.00;;;;5082378;28;19931;-63
2021/12/03 16:12:55;;;;;;;;;;;14.80;43.90;13.70;99998.00;;;;5061994;28;21737;-62
2021/12/03 16:27:53;;;;;;;;;;;14.80;44.10;13.70;99963.00;;;;5081843;28;19930;-62
2021/12/03 16:46:08;;;;;;;;;;;14.80;44.10;13.70;99943.00;;;;5066879;28;19923;-63
2021/12/03 16:52:02;;;;;;;;;;;14.80;44.20;13.70;99937.00;;;;5079589;28;19920;-62
2021/12/03 16:54:54;;;;;;;;;;;14.80;44.20;13.70;99945.00;;;;5077034;28;19923;-66
2021/12/03 16:57:41;;;;;;;;;;;14.80;44.20;13.70;99943.00;;;;5065569;28;19915;-63
2021/12/03 17:00:35;;;;;;;;;;;14.80;44.20;13.70;99936.00;;;;5073507;28;20362;-66
2021/12/03 17:03:25;;;;;;;;;;;14.80;44.30;13.70;99934.00;;;;5078017;28;20105;-64
2021/12/03 17:12:37;;;;;;;;;;;14.80;44.20;13.70;99937.00;;;;5090031;28;19916;-70
2021/12/03 17:30:29;;;;;;;;;;;14.80;44.30;13.70;99925.00;;;;5073206;28;20340;-61
2021/12/03 17:57:57;;;;;;;;;;;14.80;44.50;13.70;99925.00;;;;5086316;28;19931;-62
2021/12/03 18:00:55;;;;;;;;;;;14.80;44.50;13.70;99932.00;;;;5090721;28;20308;-62
2021/12/03 18:06:57;;;;;;;;;;;14.80;44.50;13.70;99916.00;;;;5070019;28;19922;-62
2021/12/03 18:10:01;;;;;;;;;;;14.80;44.50;13.70;99922.00;;;;5089743;28;19921;-61
2021/12/03 18:52:38;;;;;;;;;;;14.80;44.80;13.70;99859.00;;;;5087732;28;20311;-62
2021/12/03 18:55:36;;;;;;;;;;;14.80;44.80;13.70;99864.00;;;;5092480;27;20347;-61
2021/12/03 18:58:25;;;;;;;;;;;14.80;44.80;13.70;99862.00;;;;5082457;28;19990;-61
2021/12/03 19:01:12;;;;;;;;;;;14.90;44.80;13.70;99858.00;;;;5099656;27;20211;-61
2021/12/03 19:04:25;;;;;;;;;;;14.80;44.80;13.80;99858.00;;;;5085006;28;19928;-62
2021/12/03 19:07:16;;;;;;;;;;;14.80;44.80;13.80;99851.00;;;;5073940;28;19943;-61
2021/12/03 19:10:09;;;;;;;;;;;14.80;44.80;13.80;99855.00;;;;5078201;28;20387;-61
2021/12/03 19:13:05;;;;;;;;;;;14.80;45.50;13.80;99844.00;;;;5070700;28;19920;-62
2021/12/03 19:15:51;;;;;;;;;;;14.90;44.80;13.80;99838.00;;;;5089853;27;19926;-61
2021/12/03 19:18:37;;;;;;;;;;;14.90;44.80;13.80;99832.00;;;;5085467;28;20154;-61
2021/12/03 19:21:26;;;;;;;;;;;14.90;44.80;13.80;99834.00;;;;5080660;28;20272;-62
2021/12/03 19:24:13;;;;;;;;;;;14.90;44.90;13.80;99832.00;;;;5088506;28;19924;-61
2021/12/03 19:26:59;;;;;;;;;;;14.90;44.80;13.80;99825.00;;;;5091555;28;20329;-61
2021/12/03 19:29:45;;;;;;;;;;;14.90;44.80;13.90;99829.00;;;;5087923;28;19927;-62
2021/12/03 19:32:32;;;;;;;;;;;14.90;44.80;13.90;99828.00;;;;5076323;28;19920;-62
2021/12/03 19:35:18;;;;;;;;;;;14.90;44.90;13.90;99825.00;;;;5089225;28;19920;-62
2021/12/03 19:38:04;;;;;;;;;;;14.90;44.80;13.90;99828.00;;;;5086513;28;19920;-61
2021/12/03 19:47:31;;;;;;;;;;;14.90;44.80;13.90;99827.00;;;;5075248;28;19932;-61
2021/12/03 19:50:42;;;;;;;;;;;15.00;44.90;13.90;99820.00;;;;5076640;28;19969;-62
2021/12/03 19:53:28;;;;;;;;;;;15.00;44.90;13.90;99829.00;;;;5073960;28;20085;-62
2021/12/03 19:56:15;;;;;;;;;;;15.00;44.90;13.90;99818.00;;;;5070626;28;19920;-61
2021/12/03 19:59:01;;;;;;;;;;;15.00;44.90;13.90;99821.00;;;;5077880;28;19920;-61
2021/12/03 20:01:47;;;;;;;;;;;15.00;44.90;13.90;99824.00;;;;5077549;28;19930;-62
2021/12/03 20:04:33;;;;;;;;;;;15.00;44.90;13.90;99821.00;;;;5075083;28;20009;-61
2021/12/03 20:07:19;;;;;;;;;;;14.90;44.80;13.90;99822.00;;;;5076290;28;19920;-62
2021/12/03 20:10:26;;;;;;;;;;;14.90;44.80;13.90;99822.00;;;;5097470;27;19939;-62
2021/12/03 20:13:13;;;;;;;;;;;15.00;44.90;13.90;99823.00;;;;5085332;27;19961;-61
2021/12/03 20:16:15;;;;;;;;;;;15.00;44.90;13.90;99825.00;;;;5072868;28;19916;-61
2021/12/03 20:19:09;;;;;;;;;;;15.00;44.80;13.90;99826.00;;;;5092742;27;20130;-61
2021/12/03 20:22:42;;;;;;;;;;;15.00;44.90;13.90;99828.00;;;;5073985;28;19916;-61
2021/12/03 20:30:49;;;;;;;;;;;15.00;44.80;13.90;99821.00;;;;5075769;28;20263;-62
2021/12/03 20:33:54;;;;;;;;;;;15.00;44.90;13.90;99830.00;;;;5081260;28;19923;-61
2021/12/03 20:39:40;;;;;;;;;;;15.00;44.90;13.90;99817.00;;;;5076387;28;20317;-61
2021/12/03 20:42:42;;;;;;;;;;;15.00;44.80;13.90;99812.00;;;;5079326;28;20384;-62
2021/12/03 21:08:12;;;;;;;;;;;15.00;44.90;13.90;99823.00;;;;5078453;28;20267;-62
2021/12/03 21:11:04;;;;;;;;;;;15.00;45.00;13.90;99828.00;;;;5075185;28;19925;-62
2021/12/03 21:13:56;;;;;;;;;;;15.00;45.00;13.90;99832.00;;;;5077270;28;20034;-61
2021/12/03 21:20:00;;;;;;;;;;;15.00;45.00;13.90;99829.00;;;;5073041;28;19921;-62
2021/12/03 21:22:49;;;;;;;;;;;15.00;45.00;13.90;99819.00;;;;5076877;28;20304;-62
2021/12/03 21:25:37;;;;;;;;;;;15.00;45.40;13.90;99826.00;;;;5069940;28;19923;-62
2021/12/03 21:31:20;;;;;;;;;;;15.00;45.00;13.90;99824.00;;;;5079438;28;20017;-62
2021/12/03 21:40:23;;;;;;;;;;;15.00;45.10;13.90;99810.00;;;;5068815;28;19960;-62
2021/12/03 21:43:09;;;;;;;;;;;15.00;45.10;14.00;99800.00;;;;5086170;28;19920;-62